sensor_id;sensor_type;location;lat;lon;timestamp;P1;durP1;ratioP1;P2;durP2;ratioP2
3331;SDS011;1678;50.94845400;5.30809100;2022-10-12T00:00:45;15.73;;;9.93;;
3331;SDS011;1678;50.94845400;5.30809100;2022-10-12T00:03:15;17.70;;;11.10;;
3331;SDS011;1678;50.94845400;5.30809100;2022-10-12T00:05:45;13.57;;;10.27;;
3331;SDS011;1678;50.94845400;5.30809100;2022-10-12T00:08:16;18.40;;;12.35;;
3331;SDS011;1678;50.94845400;5.30809100;2022-10-12T00:10:44;11.20;;;10.05;;
3331;SDS011;1678;50.94845400;5.30809100;2022-10-12T00:13:12;15.38;;;11.32;;
3331;SDS011;1678;50.94845400;5.30809100;2022-10-12T00:15:40;11.88;;;10.52;;
3331;SDS011;1678;50.94845400;5.30809100;2022-10-12T00:18:08;15.55;;;9.27;;
3331;SDS011;1678;50.94845400;5.30809100;2022-10-12T00:20:36;11.77;;;10.25;;
3331;SDS011;1678;50.94845400;5.30809100;2022-10-12T00:23:05;10.18;;;9.23;;
3331;SDS011;1678;50.94845400;5.30809100;2022-10-12T00:25:34;16.92;;;11.30;;
3331;SDS011;1678;50.94845400;5.30809100;2022-10-12T00:28:03;15.02;;;10.23;;
3331;SDS011;1678;50.94845400;5.30809100;2022-10-12T00:30:32;13.32;;;11.98;;
3331;SDS011;1678;50.94845400;5.30809100;2022-10-12T00:33:00;16.70;;;10.90;;
3331;SDS011;1678;50.94845400;5.30809100;2022-10-12T00:35:28;11.15;;;10.05;;
3331;SDS011;1678;50.94845400;5.30809100;2022-10-12T00:37:56;15.68;;;12.90;;
3331;SDS011;1678;50.94845400;5.30809100;2022-10-12T00:40:25;15.02;;;10.95;;
3331;SDS011;1678;50.94845400;5.30809100;2022-10-12T00:42:53;15.07;;;11.70;;
3331;SDS011;1678;50.94845400;5.30809100;2022-10-12T00:45:22;18.67;;;12.15;;
3331;SDS011;1678;50.94845400;5.30809100;2022-10-12T00:47:53;12.80;;;11.55;;
3331;SDS011;1678;50.94845400;5.30809100;2022-10-12T00:50:24;14.57;;;11.55;;
3331;SDS011;1678;50.94845400;5.30809100;2022-10-12T00:52:54;15.52;;;11.35;;
3331;SDS011;1678;50.94845400;5.30809100;2022-10-12T00:55:32;12.80;;;11.38;;
3331;SDS011;1678;50.94845400;5.30809100;2022-10-12T00:58:03;24.67;;;12.95;;
3331;SDS011;1678;50.94845400;5.30809100;2022-10-12T01:00:33;20.58;;;11.32;;
3331;SDS011;1678;50.94845400;5.30809100;2022-10-12T01:03:03;13.48;;;10.90;;
3331;SDS011;1678;50.94845400;5.30809100;2022-10-12T01:05:34;12.00;;;10.68;;
3331;SDS011;1678;50.94845400;5.30809100;2022-10-12T01:08:02;20.80;;;12.00;;
3331;SDS011;1678;50.94845400;5.30809100;2022-10-12T01:10:32;15.27;;;9.90;;
3331;SDS011;1678;50.94845400;5.30809100;2022-10-12T01:13:00;15.27;;;10.73;;
3331;SDS011;1678;50.94845400;5.30809100;2022-10-12T01:15:32;13.27;;;10.55;;
3331;SDS011;1678;50.94845400;5.30809100;2022-10-12T01:18:04;14.65;;;10.57;;
3331;SDS011;1678;50.94845400;5.30809100;2022-10-12T01:20:40;11.80;;;10.25;;
3331;SDS011;1678;50.94845400;5.30809100;2022-10-12T01:27:02;22.75;;;12.75;;
3331;SDS011;1678;50.94845400;5.30809100;2022-10-12T01:29:52;16.85;;;10.93;;
3331;SDS011;1678;50.94845400;5.30809100;2022-10-12T01:32:32;17.05;;;11.43;;
3331;SDS011;1678;50.94845400;5.30809100;2022-10-12T01:35:07;18.65;;;12.13;;
3331;SDS011;1678;50.94845400;5.30809100;2022-10-12T01:37:40;15.88;;;11.43;;
3331;SDS011;1678;50.94845400;5.30809100;2022-10-12T01:40:15;19.38;;;11.43;;
3331;SDS011;1678;50.94845400;5.30809100;2022-10-12T01:42:50;14.07;;;11.27;;
3331;SDS011;1678;50.94845400;5.30809100;2022-10-12T01:45:21;15.07;;;10.45;;
3331;SDS011;1678;50.94845400;5.30809100;2022-10-12T01:47:50;14.45;;;11.23;;
3331;SDS011;1678;50.94845400;5.30809100;2022-10-12T01:50:20;15.68;;;11.63;;
3331;SDS011;1678;50.94845400;5.30809100;2022-10-12T01:52:55;15.10;;;11.57;;
3331;SDS011;1678;50.94845400;5.30809100;2022-10-12T01:55:32;13.23;;;10.60;;
3331;SDS011;1678;50.94845400;5.30809100;2022-10-12T02:00:57;9.90;;;8.90;;
3331;SDS011;1678;50.94845400;5.30809100;2022-10-12T02:03:33;12.82;;;10.85;;
3331;SDS011;1678;50.94845400;5.30809100;2022-10-12T02:06:08;11.82;;;10.45;;
3331;SDS011;1678;50.94845400;5.30809100;2022-10-12T02:08:40;14.38;;;11.13;;
3331;SDS011;1678;50.94845400;5.30809100;2022-10-12T02:11:15;14.43;;;11.00;;
3331;SDS011;1678;50.94845400;5.30809100;2022-10-12T02:13:47;18.50;;;11.80;;
3331;SDS011;1678;50.94845400;5.30809100;2022-10-12T02:16:21;17.83;;;11.65;;
3331;SDS011;1678;50.94845400;5.30809100;2022-10-12T02:18:54;18.00;;;10.68;;
3331;SDS011;1678;50.94845400;5.30809100;2022-10-12T02:21:24;14.98;;;11.10;;
3331;SDS011;1678;50.94845400;5.30809100;2022-10-12T02:23:57;11.73;;;10.27;;
3331;SDS011;1678;50.94845400;5.30809100;2022-10-12T02:26:28;15.00;;;10.40;;
3331;SDS011;1678;50.94845400;5.30809100;2022-10-12T02:28:58;15.00;;;10.70;;
3331;SDS011;1678;50.94845400;5.30809100;2022-10-12T02:31:31;16.00;;;11.25;;
3331;SDS011;1678;50.94845400;5.30809100;2022-10-12T02:34:07;17.02;;;10.57;;
3331;SDS011;1678;50.94845400;5.30809100;2022-10-12T02:36:41;16.92;;;10.63;;
3331;SDS011;1678;50.94845400;5.30809100;2022-10-12T02:39:14;12.68;;;9.52;;
3331;SDS011;1678;50.94845400;5.30809100;2022-10-12T02:41:48;17.35;;;10.85;;
3331;SDS011;1678;50.94845400;5.30809100;2022-10-12T02:44:18;22.58;;;9.95;;
3331;SDS011;1678;50.94845400;5.30809100;2022-10-12T02:46:51;24.77;;;11.85;;
3331;SDS011;1678;50.94845400;5.30809100;2022-10-12T02:49:21;15.93;;;10.25;;
3331;SDS011;1678;50.94845400;5.30809100;2022-10-12T02:51:52;14.00;;;11.88;;
3331;SDS011;1678;50.94845400;5.30809100;2022-10-12T02:54:20;20.80;;;10.25;;
3331;SDS011;1678;50.94845400;5.30809100;2022-10-12T02:56:48;22.23;;;11.43;;
3331;SDS011;1678;50.94845400;5.30809100;2022-10-12T02:59:17;16.23;;;10.23;;
3331;SDS011;1678;50.94845400;5.30809100;2022-10-12T03:01:45;13.88;;;9.02;;
3331;SDS011;1678;50.94845400;5.30809100;2022-10-12T03:04:15;14.88;;;10.85;;
3331;SDS011;1678;50.94845400;5.30809100;2022-10-12T03:06:43;18.38;;;12.27;;
3331;SDS011;1678;50.94845400;5.30809100;2022-10-12T03:09:11;13.00;;;9.70;;
3331;SDS011;1678;50.94845400;5.30809100;2022-10-12T03:11:39;15.30;;;12.80;;
3331;SDS011;1678;50.94845400;5.30809100;2022-10-12T03:14:09;16.45;;;9.55;;
3331;SDS011;1678;50.94845400;5.30809100;2022-10-12T03:16:38;15.15;;;9.82;;
3331;SDS011;1678;50.94845400;5.30809100;2022-10-12T03:19:06;13.88;;;11.43;;
3331;SDS011;1678;50.94845400;5.30809100;2022-10-12T03:21:35;18.33;;;10.43;;
3331;SDS011;1678;50.94845400;5.30809100;2022-10-12T03:24:03;21.63;;;12.13;;
3331;SDS011;1678;50.94845400;5.30809100;2022-10-12T03:26:32;24.48;;;11.55;;
3331;SDS011;1678;50.94845400;5.30809100;2022-10-12T03:29:00;16.20;;;10.48;;
3331;SDS011;1678;50.94845400;5.30809100;2022-10-12T03:31:28;17.08;;;11.98;;
3331;SDS011;1678;50.94845400;5.30809100;2022-10-12T03:33:56;18.60;;;10.18;;
3331;SDS011;1678;50.94845400;5.30809100;2022-10-12T03:36:24;16.15;;;10.93;;
3331;SDS011;1678;50.94845400;5.30809100;2022-10-12T03:38:54;21.98;;;11.80;;
3331;SDS011;1678;50.94845400;5.30809100;2022-10-12T03:41:22;18.30;;;12.77;;
3331;SDS011;1678;50.94845400;5.30809100;2022-10-12T03:43:50;17.90;;;10.73;;
3331;SDS011;1678;50.94845400;5.30809100;2022-10-12T03:46:18;17.55;;;11.25;;
3331;SDS011;1678;50.94845400;5.30809100;2022-10-12T03:48:46;14.27;;;11.13;;
3331;SDS011;1678;50.94845400;5.30809100;2022-10-12T03:51:14;21.77;;;12.05;;
3331;SDS011;1678;50.94845400;5.30809100;2022-10-12T03:53:42;23.35;;;11.88;;
3331;SDS011;1678;50.94845400;5.30809100;2022-10-12T03:56:12;15.45;;;11.35;;
3331;SDS011;1678;50.94845400;5.30809100;2022-10-12T03:58:40;11.65;;;9.25;;
3331;SDS011;1678;50.94845400;5.30809100;2022-10-12T04:01:08;17.15;;;11.38;;
3331;SDS011;1678;50.94845400;5.30809100;2022-10-12T04:03:36;25.98;;;13.48;;
3331;SDS011;1678;50.94845400;5.30809100;2022-10-12T04:06:04;22.35;;;10.68;;
3331;SDS011;1678;50.94845400;5.30809100;2022-10-12T04:08:33;15.63;;;11.00;;
3331;SDS011;1678;50.94845400;5.30809100;2022-10-12T04:11:01;11.27;;;9.93;;
3331;SDS011;1678;50.94845400;5.30809100;2022-10-12T04:13:30;14.80;;;9.60;;
3331;SDS011;1678;50.94845400;5.30809100;2022-10-12T04:16:00;19.15;;;10.77;;
3331;SDS011;1678;50.94845400;5.30809100;2022-10-12T04:18:29;11.77;;;9.77;;
3331;SDS011;1678;50.94845400;5.30809100;2022-10-12T04:20:57;11.05;;;9.30;;
3331;SDS011;1678;50.94845400;5.30809100;2022-10-12T04:23:25;16.95;;;10.30;;
3331;SDS011;1678;50.94845400;5.30809100;2022-10-12T04:25:55;12.32;;;9.93;;
3331;SDS011;1678;50.94845400;5.30809100;2022-10-12T04:28:23;9.77;;;8.55;;
3331;SDS011;1678;50.94845400;5.30809100;2022-10-12T04:30:52;18.33;;;9.65;;
3331;SDS011;1678;50.94845400;5.30809100;2022-10-12T04:33:20;17.08;;;11.38;;
3331;SDS011;1678;50.94845400;5.30809100;2022-10-12T04:35:48;17.80;;;10.45;;
3331;SDS011;1678;50.94845400;5.30809100;2022-10-12T04:38:17;18.23;;;10.70;;
3331;SDS011;1678;50.94845400;5.30809100;2022-10-12T04:40:45;15.80;;;8.38;;
3331;SDS011;1678;50.94845400;5.30809100;2022-10-12T04:43:14;11.45;;;9.32;;
3331;SDS011;1678;50.94845400;5.30809100;2022-10-12T04:45:42;11.82;;;9.95;;
3331;SDS011;1678;50.94845400;5.30809100;2022-10-12T04:48:12;10.75;;;8.38;;
3331;SDS011;1678;50.94845400;5.30809100;2022-10-12T04:50:40;15.82;;;9.88;;
3331;SDS011;1678;50.94845400;5.30809100;2022-10-12T04:53:09;19.10;;;9.80;;
3331;SDS011;1678;50.94845400;5.30809100;2022-10-12T04:55:37;12.95;;;8.50;;
3331;SDS011;1678;50.94845400;5.30809100;2022-10-12T04:58:05;14.45;;;9.60;;
3331;SDS011;1678;50.94845400;5.30809100;2022-10-12T05:00:33;10.95;;;9.20;;
3331;SDS011;1678;50.94845400;5.30809100;2022-10-12T05:03:01;13.50;;;10.20;;
3331;SDS011;1678;50.94845400;5.30809100;2022-10-12T05:05:30;15.43;;;10.35;;
3331;SDS011;1678;50.94845400;5.30809100;2022-10-12T05:07:59;11.75;;;8.98;;
3331;SDS011;1678;50.94845400;5.30809100;2022-10-12T05:10:27;14.07;;;8.98;;
3331;SDS011;1678;50.94845400;5.30809100;2022-10-12T05:12:55;16.00;;;11.70;;
3331;SDS011;1678;50.94845400;5.30809100;2022-10-12T05:15:23;11.38;;;10.27;;
3331;SDS011;1678;50.94845400;5.30809100;2022-10-12T05:17:51;15.43;;;10.68;;
3331;SDS011;1678;50.94845400;5.30809100;2022-10-12T05:20:19;16.02;;;9.70;;
3331;SDS011;1678;50.94845400;5.30809100;2022-10-12T05:22:49;15.15;;;9.65;;
3331;SDS011;1678;50.94845400;5.30809100;2022-10-12T05:25:17;18.80;;;11.50;;
3331;SDS011;1678;50.94845400;5.30809100;2022-10-12T05:27:45;10.32;;;9.18;;
3331;SDS011;1678;50.94845400;5.30809100;2022-10-12T05:30:13;18.67;;;9.43;;
3331;SDS011;1678;50.94845400;5.30809100;2022-10-12T05:32:42;13.18;;;10.00;;
3331;SDS011;1678;50.94845400;5.30809100;2022-10-12T05:35:10;13.18;;;9.45;;
3331;SDS011;1678;50.94845400;5.30809100;2022-10-12T05:37:38;24.20;;;9.90;;
3331;SDS011;1678;50.94845400;5.30809100;2022-10-12T05:40:08;10.27;;;8.57;;
3331;SDS011;1678;50.94845400;5.30809100;2022-10-12T05:42:36;14.07;;;9.80;;
3331;SDS011;1678;50.94845400;5.30809100;2022-10-12T05:45:05;21.70;;;11.65;;
3331;SDS011;1678;50.94845400;5.30809100;2022-10-12T05:47:34;13.80;;;9.40;;
3331;SDS011;1678;50.94845400;5.30809100;2022-10-12T05:50:03;11.85;;;9.15;;
3331;SDS011;1678;50.94845400;5.30809100;2022-10-12T05:52:31;11.07;;;9.98;;
3331;SDS011;1678;50.94845400;5.30809100;2022-10-12T05:55:00;11.70;;;10.50;;
3331;SDS011;1678;50.94845400;5.30809100;2022-10-12T05:57:29;13.95;;;9.80;;
3331;SDS011;1678;50.94845400;5.30809100;2022-10-12T05:59:57;21.25;;;10.15;;
3331;SDS011;1678;50.94845400;5.30809100;2022-10-12T06:02:25;13.52;;;9.70;;
3331;SDS011;1678;50.94845400;5.30809100;2022-10-12T06:04:53;14.38;;;10.23;;
3331;SDS011;1678;50.94845400;5.30809100;2022-10-12T06:07:21;17.27;;;11.25;;
3331;SDS011;1678;50.94845400;5.30809100;2022-10-12T06:09:49;13.23;;;9.95;;
3331;SDS011;1678;50.94845400;5.30809100;2022-10-12T06:12:17;15.45;;;11.02;;
3331;SDS011;1678;50.94845400;5.30809100;2022-10-12T06:14:47;11.23;;;9.85;;
3331;SDS011;1678;50.94845400;5.30809100;2022-10-12T06:17:15;15.10;;;10.43;;
3331;SDS011;1678;50.94845400;5.30809100;2022-10-12T06:19:43;27.63;;;10.20;;
3331;SDS011;1678;50.94845400;5.30809100;2022-10-12T06:22:11;15.63;;;10.90;;
3331;SDS011;1678;50.94845400;5.30809100;2022-10-12T06:24:39;14.65;;;9.85;;
3331;SDS011;1678;50.94845400;5.30809100;2022-10-12T06:27:07;10.25;;;8.48;;
3331;SDS011;1678;50.94845400;5.30809100;2022-10-12T06:29:35;18.13;;;11.32;;
3331;SDS011;1678;50.94845400;5.30809100;2022-10-12T06:32:05;21.00;;;10.75;;
3331;SDS011;1678;50.94845400;5.30809100;2022-10-12T06:34:33;16.30;;;11.88;;
3331;SDS011;1678;50.94845400;5.30809100;2022-10-12T06:37:01;14.95;;;11.43;;
3331;SDS011;1678;50.94845400;5.30809100;2022-10-12T06:39:29;25.63;;;14.35;;
3331;SDS011;1678;50.94845400;5.30809100;2022-10-12T06:41:57;23.10;;;15.45;;
3331;SDS011;1678;50.94845400;5.30809100;2022-10-12T06:44:25;20.88;;;14.10;;
3331;SDS011;1678;50.94845400;5.30809100;2022-10-12T06:46:53;26.00;;;14.45;;
3331;SDS011;1678;50.94845400;5.30809100;2022-10-12T06:49:22;21.20;;;14.95;;
3331;SDS011;1678;50.94845400;5.30809100;2022-10-12T06:51:51;19.00;;;14.20;;
3331;SDS011;1678;50.94845400;5.30809100;2022-10-12T06:54:19;24.80;;;12.90;;
3331;SDS011;1678;50.94845400;5.30809100;2022-10-12T06:56:47;23.88;;;12.93;;
3331;SDS011;1678;50.94845400;5.30809100;2022-10-12T06:59:15;21.52;;;11.30;;
3331;SDS011;1678;50.94845400;5.30809100;2022-10-12T07:01:44;12.95;;;11.65;;
3331;SDS011;1678;50.94845400;5.30809100;2022-10-12T07:04:12;21.65;;;12.05;;
3331;SDS011;1678;50.94845400;5.30809100;2022-10-12T07:06:41;18.85;;;12.50;;
3331;SDS011;1678;50.94845400;5.30809100;2022-10-12T07:09:09;22.90;;;11.40;;
3331;SDS011;1678;50.94845400;5.30809100;2022-10-12T07:11:37;25.52;;;13.32;;
3331;SDS011;1678;50.94845400;5.30809100;2022-10-12T07:14:05;19.17;;;12.55;;
3331;SDS011;1678;50.94845400;5.30809100;2022-10-12T07:16:34;55.95;;;16.65;;
3331;SDS011;1678;50.94845400;5.30809100;2022-10-12T07:19:02;32.40;;;15.45;;
3331;SDS011;1678;50.94845400;5.30809100;2022-10-12T07:21:30;116.20;;;23.83;;
3331;SDS011;1678;50.94845400;5.30809100;2022-10-12T07:23:59;30.73;;;15.35;;
3331;SDS011;1678;50.94845400;5.30809100;2022-10-12T07:26:27;19.48;;;15.45;;
3331;SDS011;1678;50.94845400;5.30809100;2022-10-12T07:28:59;26.20;;;16.08;;
3331;SDS011;1678;50.94845400;5.30809100;2022-10-12T07:31:28;19.60;;;16.45;;
3331;SDS011;1678;50.94845400;5.30809100;2022-10-12T07:33:56;30.05;;;16.50;;
3331;SDS011;1678;50.94845400;5.30809100;2022-10-12T07:36:24;44.78;;;21.27;;
3331;SDS011;1678;50.94845400;5.30809100;2022-10-12T07:39:14;39.88;;;23.00;;
3331;SDS011;1678;50.94845400;5.30809100;2022-10-12T07:41:42;35.63;;;17.60;;
3331;SDS011;1678;50.94845400;5.30809100;2022-10-12T07:44:10;29.08;;;18.08;;
3331;SDS011;1678;50.94845400;5.30809100;2022-10-12T07:46:38;34.63;;;17.20;;
3331;SDS011;1678;50.94845400;5.30809100;2022-10-12T07:49:06;32.13;;;17.08;;
3331;SDS011;1678;50.94845400;5.30809100;2022-10-12T07:51:34;22.98;;;12.95;;
3331;SDS011;1678;50.94845400;5.30809100;2022-10-12T07:54:03;24.57;;;12.73;;
3331;SDS011;1678;50.94845400;5.30809100;2022-10-12T07:56:33;22.77;;;13.35;;
3331;SDS011;1678;50.94845400;5.30809100;2022-10-12T07:59:01;21.77;;;12.73;;
3331;SDS011;1678;50.94845400;5.30809100;2022-10-12T08:01:30;24.10;;;12.90;;
3331;SDS011;1678;50.94845400;5.30809100;2022-10-12T08:04:00;24.93;;;12.13;;
3331;SDS011;1678;50.94845400;5.30809100;2022-10-12T08:06:28;24.77;;;12.73;;
3331;SDS011;1678;50.94845400;5.30809100;2022-10-12T08:08:58;29.90;;;11.70;;
3331;SDS011;1678;50.94845400;5.30809100;2022-10-12T08:11:27;17.00;;;10.67;;
3331;SDS011;1678;50.94845400;5.30809100;2022-10-12T08:13:57;22.80;;;10.93;;
3331;SDS011;1678;50.94845400;5.30809100;2022-10-12T08:16:25;22.83;;;10.90;;
3331;SDS011;1678;50.94845400;5.30809100;2022-10-12T08:18:53;19.37;;;10.00;;
3331;SDS011;1678;50.94845400;5.30809100;2022-10-12T08:21:21;33.33;;;14.33;;
3331;SDS011;1678;50.94845400;5.30809100;2022-10-12T08:23:49;21.47;;;11.40;;
3331;SDS011;1678;50.94845400;5.30809100;2022-10-12T08:26:18;12.63;;;9.10;;
3331;SDS011;1678;50.94845400;5.30809100;2022-10-12T08:28:46;17.53;;;8.60;;
3331;SDS011;1678;50.94845400;5.30809100;2022-10-12T08:31:16;19.63;;;10.00;;
3331;SDS011;1678;50.94845400;5.30809100;2022-10-12T08:33:44;19.50;;;10.40;;
3331;SDS011;1678;50.94845400;5.30809100;2022-10-12T08:36:12;24.20;;;10.23;;
3331;SDS011;1678;50.94845400;5.30809100;2022-10-12T08:38:40;10.37;;;8.30;;
3331;SDS011;1678;50.94845400;5.30809100;2022-10-12T08:41:15;13.73;;;9.10;;
3331;SDS011;1678;50.94845400;5.30809100;2022-10-12T08:44:05;8.07;;;6.20;;
3331;SDS011;1678;50.94845400;5.30809100;2022-10-12T08:46:46;10.63;;;6.67;;
3331;SDS011;1678;50.94845400;5.30809100;2022-10-12T08:49:15;11.73;;;6.67;;
3331;SDS011;1678;50.94845400;5.30809100;2022-10-12T08:51:47;7.93;;;5.80;;
3331;SDS011;1678;50.94845400;5.30809100;2022-10-12T08:54:18;15.97;;;7.10;;
3331;SDS011;1678;50.94845400;5.30809100;2022-10-12T08:56:50;11.13;;;6.60;;
3331;SDS011;1678;50.94845400;5.30809100;2022-10-12T08:59:20;13.90;;;6.40;;
3331;SDS011;1678;50.94845400;5.30809100;2022-10-12T09:01:53;12.30;;;8.90;;
3331;SDS011;1678;50.94845400;5.30809100;2022-10-12T09:04:33;7.87;;;4.90;;
3331;SDS011;1678;50.94845400;5.30809100;2022-10-12T09:07:11;6.27;;;5.73;;
3331;SDS011;1678;50.94845400;5.30809100;2022-10-12T09:09:46;11.93;;;6.10;;
3331;SDS011;1678;50.94845400;5.30809100;2022-10-12T09:12:25;11.30;;;5.87;;
3331;SDS011;1678;50.94845400;5.30809100;2022-10-12T09:15:04;18.70;;;5.53;;
3331;SDS011;1678;50.94845400;5.30809100;2022-10-12T09:17:40;7.70;;;4.57;;
3331;SDS011;1678;50.94845400;5.30809100;2022-10-12T09:20:15;15.17;;;5.10;;
3331;SDS011;1678;50.94845400;5.30809100;2022-10-12T09:22:47;10.23;;;5.37;;
3331;SDS011;1678;50.94845400;5.30809100;2022-10-12T09:25:17;18.60;;;6.20;;
3331;SDS011;1678;50.94845400;5.30809100;2022-10-12T09:27:50;11.67;;;5.90;;
3331;SDS011;1678;50.94845400;5.30809100;2022-10-12T09:30:19;12.53;;;5.33;;
3331;SDS011;1678;50.94845400;5.30809100;2022-10-12T09:32:58;8.93;;;5.37;;
3331;SDS011;1678;50.94845400;5.30809100;2022-10-12T09:35:41;17.90;;;6.53;;
3331;SDS011;1678;50.94845400;5.30809100;2022-10-12T09:38:11;12.87;;;6.40;;
3331;SDS011;1678;50.94845400;5.30809100;2022-10-12T09:40:40;8.57;;;7.30;;
3331;SDS011;1678;50.94845400;5.30809100;2022-10-12T09:43:08;9.07;;;4.73;;
3331;SDS011;1678;50.94845400;5.30809100;2022-10-12T09:45:36;11.33;;;5.07;;
3331;SDS011;1678;50.94845400;5.30809100;2022-10-12T09:48:10;12.60;;;6.10;;
3331;SDS011;1678;50.94845400;5.30809100;2022-10-12T09:50:41;14.13;;;6.63;;
3331;SDS011;1678;50.94845400;5.30809100;2022-10-12T09:53:12;11.83;;;7.40;;
3331;SDS011;1678;50.94845400;5.30809100;2022-10-12T09:55:56;11.97;;;5.30;;
3331;SDS011;1678;50.94845400;5.30809100;2022-10-12T09:58:32;7.77;;;4.60;;
3331;SDS011;1678;50.94845400;5.30809100;2022-10-12T10:01:11;9.60;;;6.33;;
3331;SDS011;1678;50.94845400;5.30809100;2022-10-12T10:03:49;8.97;;;5.10;;
3331;SDS011;1678;50.94845400;5.30809100;2022-10-12T10:06:33;13.93;;;5.40;;
3331;SDS011;1678;50.94845400;5.30809100;2022-10-12T10:09:02;11.30;;;5.93;;
3331;SDS011;1678;50.94845400;5.30809100;2022-10-12T10:11:31;9.60;;;5.37;;
3331;SDS011;1678;50.94845400;5.30809100;2022-10-12T10:14:00;9.93;;;5.60;;
3331;SDS011;1678;50.94845400;5.30809100;2022-10-12T10:16:28;12.23;;;6.00;;
3331;SDS011;1678;50.94845400;5.30809100;2022-10-12T10:18:59;6.80;;;4.63;;
3331;SDS011;1678;50.94845400;5.30809100;2022-10-12T10:21:29;7.27;;;4.70;;
3331;SDS011;1678;50.94845400;5.30809100;2022-10-12T10:24:00;13.00;;;7.30;;
3331;SDS011;1678;50.94845400;5.30809100;2022-10-12T10:29:23;17.00;;;5.47;;
3331;SDS011;1678;50.94845400;5.30809100;2022-10-12T10:32:06;6.83;;;4.93;;
3331;SDS011;1678;50.94845400;5.30809100;2022-10-12T10:34:41;6.27;;;4.83;;
3331;SDS011;1678;50.94845400;5.30809100;2022-10-12T10:37:12;16.93;;;5.20;;
3331;SDS011;1678;50.94845400;5.30809100;2022-10-12T10:39:44;11.13;;;5.90;;
3331;SDS011;1678;50.94845400;5.30809100;2022-10-12T10:42:17;15.67;;;6.60;;
3331;SDS011;1678;50.94845400;5.30809100;2022-10-12T10:44:47;17.60;;;6.37;;
3331;SDS011;1678;50.94845400;5.30809100;2022-10-12T10:47:17;10.90;;;5.87;;
3331;SDS011;1678;50.94845400;5.30809100;2022-10-12T10:49:48;18.47;;;6.63;;
3331;SDS011;1678;50.94845400;5.30809100;2022-10-12T10:52:20;10.33;;;5.23;;
3331;SDS011;1678;50.94845400;5.30809100;2022-10-12T10:55:04;12.47;;;7.53;;
3331;SDS011;1678;50.94845400;5.30809100;2022-10-12T10:57:42;8.67;;;5.17;;
3331;SDS011;1678;50.94845400;5.30809100;2022-10-12T11:00:17;9.50;;;5.30;;
3331;SDS011;1678;50.94845400;5.30809100;2022-10-12T11:03:06;8.43;;;4.90;;
3331;SDS011;1678;50.94845400;5.30809100;2022-10-12T11:05:43;11.57;;;4.77;;
3331;SDS011;1678;50.94845400;5.30809100;2022-10-12T11:08:16;15.97;;;4.73;;
3331;SDS011;1678;50.94845400;5.30809100;2022-10-12T11:10:49;4.33;;;4.03;;
3331;SDS011;1678;50.94845400;5.30809100;2022-10-12T11:13:22;5.17;;;3.60;;
3331;SDS011;1678;50.94845400;5.30809100;2022-10-12T11:15:52;5.00;;;3.77;;
3331;SDS011;1678;50.94845400;5.30809100;2022-10-12T11:18:28;3.20;;;2.90;;
3331;SDS011;1678;50.94845400;5.30809100;2022-10-12T11:21:03;10.23;;;3.70;;
3331;SDS011;1678;50.94845400;5.30809100;2022-10-12T11:23:37;6.97;;;3.60;;
3331;SDS011;1678;50.94845400;5.30809100;2022-10-12T11:26:12;7.20;;;3.70;;
3331;SDS011;1678;50.94845400;5.30809100;2022-10-12T11:28:46;10.63;;;4.17;;
3331;SDS011;1678;50.94845400;5.30809100;2022-10-12T11:31:17;9.53;;;3.60;;
3331;SDS011;1678;50.94845400;5.30809100;2022-10-12T11:33:49;6.73;;;3.07;;
3331;SDS011;1678;50.94845400;5.30809100;2022-10-12T11:36:21;4.07;;;2.67;;
3331;SDS011;1678;50.94845400;5.30809100;2022-10-12T11:38:53;7.40;;;3.67;;
3331;SDS011;1678;50.94845400;5.30809100;2022-10-12T11:41:33;3.57;;;3.20;;
3331;SDS011;1678;50.94845400;5.30809100;2022-10-12T11:44:34;6.20;;;2.87;;
3331;SDS011;1678;50.94845400;5.30809100;2022-10-12T11:47:09;6.30;;;2.57;;
3331;SDS011;1678;50.94845400;5.30809100;2022-10-12T11:49:45;7.77;;;2.33;;
3331;SDS011;1678;50.94845400;5.30809100;2022-10-12T11:52:19;5.70;;;3.20;;
3331;SDS011;1678;50.94845400;5.30809100;2022-10-12T11:54:54;8.77;;;3.40;;
3331;SDS011;1678;50.94845400;5.30809100;2022-10-12T11:57:27;4.97;;;2.40;;
3331;SDS011;1678;50.94845400;5.30809100;2022-10-12T12:00:00;6.43;;;2.60;;
3331;SDS011;1678;50.94845400;5.30809100;2022-10-12T12:02:32;4.63;;;2.10;;
3331;SDS011;1678;50.94845400;5.30809100;2022-10-12T12:05:09;4.70;;;2.10;;
3331;SDS011;1678;50.94845400;5.30809100;2022-10-12T12:07:47;9.07;;;2.67;;
3331;SDS011;1678;50.94845400;5.30809100;2022-10-12T12:13:29;6.33;;;2.70;;
3331;SDS011;1678;50.94845400;5.30809100;2022-10-12T12:22:17;9.50;;;3.33;;
3331;SDS011;1678;50.94845400;5.30809100;2022-10-12T12:24:57;4.93;;;3.17;;
3331;SDS011;1678;50.94845400;5.30809100;2022-10-12T12:27:33;8.53;;;3.80;;
3331;SDS011;1678;50.94845400;5.30809100;2022-10-12T12:30:04;8.47;;;2.23;;
3331;SDS011;1678;50.94845400;5.30809100;2022-10-12T12:32:48;6.83;;;2.10;;
3331;SDS011;1678;50.94845400;5.30809100;2022-10-12T12:35:20;10.87;;;5.37;;
3331;SDS011;1678;50.94845400;5.30809100;2022-10-12T12:38:01;4.07;;;2.90;;
3331;SDS011;1678;50.94845400;5.30809100;2022-10-12T12:40:56;3.70;;;2.40;;
3331;SDS011;1678;50.94845400;5.30809100;2022-10-12T12:43:37;5.77;;;2.93;;
3331;SDS011;1678;50.94845400;5.30809100;2022-10-12T12:46:17;6.93;;;2.90;;
3331;SDS011;1678;50.94845400;5.30809100;2022-10-12T12:48:54;4.37;;;3.00;;
3331;SDS011;1678;50.94845400;5.30809100;2022-10-12T12:51:24;17.17;;;4.00;;
3331;SDS011;1678;50.94845400;5.30809100;2022-10-12T12:54:17;7.23;;;2.87;;
3331;SDS011;1678;50.94845400;5.30809100;2022-10-12T12:56:55;7.53;;;2.33;;
3331;SDS011;1678;50.94845400;5.30809100;2022-10-12T12:59:58;7.37;;;2.40;;
3331;SDS011;1678;50.94845400;5.30809100;2022-10-12T13:06:26;11.57;;;2.83;;
3331;SDS011;1678;50.94845400;5.30809100;2022-10-12T13:21:18;8.33;;;2.83;;
3331;SDS011;1678;50.94845400;5.30809100;2022-10-12T13:23:49;7.20;;;2.20;;
3331;SDS011;1678;50.94845400;5.30809100;2022-10-12T13:26:21;2.57;;;2.20;;
3331;SDS011;1678;50.94845400;5.30809100;2022-10-12T13:28:54;6.83;;;2.77;;
3331;SDS011;1678;50.94845400;5.30809100;2022-10-12T13:31:24;1.90;;;1.80;;
3331;SDS011;1678;50.94845400;5.30809100;2022-10-12T13:34:00;7.63;;;2.20;;
3331;SDS011;1678;50.94845400;5.30809100;2022-10-12T13:36:43;5.90;;;3.50;;
3331;SDS011;1678;50.94845400;5.30809100;2022-10-12T13:39:18;3.93;;;3.50;;
3331;SDS011;1678;50.94845400;5.30809100;2022-10-12T13:41:47;4.37;;;2.67;;
3331;SDS011;1678;50.94845400;5.30809100;2022-10-12T13:44:20;5.00;;;2.60;;
3331;SDS011;1678;50.94845400;5.30809100;2022-10-12T13:46:51;3.17;;;2.00;;
3331;SDS011;1678;50.94845400;5.30809100;2022-10-12T13:49:23;8.17;;;2.60;;
3331;SDS011;1678;50.94845400;5.30809100;2022-10-12T13:51:54;7.40;;;3.13;;
3331;SDS011;1678;50.94845400;5.30809100;2022-10-12T13:54:23;3.63;;;2.50;;